sensor_id;sensor_type;location;lat;lon;timestamp;temperature;humidity
30648;DHT22;17683;53.360;9.736;2022-09-09T00:00:33;14.80;99.90
30648;DHT22;17683;53.360;9.736;2022-09-09T00:03:14;14.80;99.90
30648;DHT22;17683;53.360;9.736;2022-09-09T00:11:09;14.80;99.90
30648;DHT22;17683;53.360;9.736;2022-09-09T00:14:03;14.80;99.90
30648;DHT22;17683;53.360;9.736;2022-09-09T00:16:35;14.80;99.90
30648;DHT22;17683;53.360;9.736;2022-09-09T00:21:57;14.80;99.90
30648;DHT22;17683;53.360;9.736;2022-09-09T00:27:51;14.80;99.90
30648;DHT22;17683;53.360;9.736;2022-09-09T00:32:46;14.80;99.90
30648;DHT22;17683;53.360;9.736;2022-09-09T00:35:22;14.80;99.90
30648;DHT22;17683;53.360;9.736;2022-09-09T00:37:53;14.80;99.90
30648;DHT22;17683;53.360;9.736;2022-09-09T00:40:29;14.80;99.90
30648;DHT22;17683;53.360;9.736;2022-09-09T00:46:10;14.70;99.90
30648;DHT22;17683;53.360;9.736;2022-09-09T00:48:45;14.60;99.90
30648;DHT22;17683;53.360;9.736;2022-09-09T00:56:40;14.60;99.90
30648;DHT22;17683;53.360;9.736;2022-09-09T01:00:14;14.50;99.90
30648;DHT22;17683;53.360;9.736;2022-09-09T01:02:07;14.40;99.90
30648;DHT22;17683;53.360;9.736;2022-09-09T01:04:38;14.40;99.90
30648;DHT22;17683;53.360;9.736;2022-09-09T01:07:17;14.40;99.90
30648;DHT22;17683;53.360;9.736;2022-09-09T01:09:59;14.40;99.90
30648;DHT22;17683;53.360;9.736;2022-09-09T01:12:40;14.30;99.90
30648;DHT22;17683;53.360;9.736;2022-09-09T01:15:23;14.30;99.90
30648;DHT22;17683;53.360;9.736;2022-09-09T01:18:08;14.30;99.90
30648;DHT22;17683;53.360;9.736;2022-09-09T01:28:55;14.10;99.90
30648;DHT22;17683;53.360;9.736;2022-09-09T01:31:34;14.10;99.90
30648;DHT22;17683;53.360;9.736;2022-09-09T01:34:01;14.10;99.90
30648;DHT22;17683;53.360;9.736;2022-09-09T01:36:38;14.00;99.90
30648;DHT22;17683;53.360;9.736;2022-09-09T01:39:06;14.00;99.90
30648;DHT22;17683;53.360;9.736;2022-09-09T01:41:32;14.00;99.90
30648;DHT22;17683;53.360;9.736;2022-09-09T01:43:58;14.00;99.90
30648;DHT22;17683;53.360;9.736;2022-09-09T01:46:24;13.90;99.90
30648;DHT22;17683;53.360;9.736;2022-09-09T01:48:53;13.90;99.90
30648;DHT22;17683;53.360;9.736;2022-09-09T01:51:21;13.90;99.90
30648;DHT22;17683;53.360;9.736;2022-09-09T01:53:47;13.90;99.90
30648;DHT22;17683;53.360;9.736;2022-09-09T02:07:42;13.80;99.90
30648;DHT22;17683;53.360;9.736;2022-09-09T02:10:23;13.90;99.90
30648;DHT22;17683;53.360;9.736;2022-09-09T02:12:59;13.90;99.90
30648;DHT22;17683;53.360;9.736;2022-09-09T02:15:34;13.90;99.90
30648;DHT22;17683;53.360;9.736;2022-09-09T02:18:00;13.90;99.90
30648;DHT22;17683;53.360;9.736;2022-09-09T02:20:28;14.00;99.90
30648;DHT22;17683;53.360;9.736;2022-09-09T02:22:58;13.90;99.90
30648;DHT22;17683;53.360;9.736;2022-09-09T02:25:26;13.90;99.90
30648;DHT22;17683;53.360;9.736;2022-09-09T02:27:53;13.90;99.90
30648;DHT22;17683;53.360;9.736;2022-09-09T02:30:21;13.90;99.90
30648;DHT22;17683;53.360;9.736;2022-09-09T02:32:48;13.90;99.90
30648;DHT22;17683;53.360;9.736;2022-09-09T02:35:19;13.90;99.90
30648;DHT22;17683;53.360;9.736;2022-09-09T02:37:47;13.90;99.90
30648;DHT22;17683;53.360;9.736;2022-09-09T02:40:15;13.90;99.90
30648;DHT22;17683;53.360;9.736;2022-09-09T02:42:46;13.90;99.90
30648;DHT22;17683;53.360;9.736;2022-09-09T02:45:15;13.90;99.90
30648;DHT22;17683;53.360;9.736;2022-09-09T02:51:02;13.90;99.90
30648;DHT22;17683;53.360;9.736;2022-09-09T02:56:29;13.80;99.90
30648;DHT22;17683;53.360;9.736;2022-09-09T02:58:56;13.80;99.90
30648;DHT22;17683;53.360;9.736;2022-09-09T03:01:22;13.80;99.90
30648;DHT22;17683;53.360;9.736;2022-09-09T03:03:48;13.80;99.90
30648;DHT22;17683;53.360;9.736;2022-09-09T03:06:14;13.70;99.90
30648;DHT22;17683;53.360;9.736;2022-09-09T03:08:42;13.70;99.90
30648;DHT22;17683;53.360;9.736;2022-09-09T03:11:08;13.70;99.90
30648;DHT22;17683;53.360;9.736;2022-09-09T03:13:34;13.70;99.90
30648;DHT22;17683;53.360;9.736;2022-09-09T03:16:00;13.60;99.90
30648;DHT22;17683;53.360;9.736;2022-09-09T03:18:26;13.60;99.90
30648;DHT22;17683;53.360;9.736;2022-09-09T03:20:53;13.60;99.90
30648;DHT22;17683;53.360;9.736;2022-09-09T03:23:19;13.50;99.90
30648;DHT22;17683;53.360;9.736;2022-09-09T03:25:50;13.50;99.90
30648;DHT22;17683;53.360;9.736;2022-09-09T03:28:17;13.50;99.90
30648;DHT22;17683;53.360;9.736;2022-09-09T03:30:43;13.50;99.90
30648;DHT22;17683;53.360;9.736;2022-09-09T03:33:09;13.40;99.90
30648;DHT22;17683;53.360;9.736;2022-09-09T03:35:35;13.40;99.90
30648;DHT22;17683;53.360;9.736;2022-09-09T03:38:01;13.40;99.90
30648;DHT22;17683;53.360;9.736;2022-09-09T03:40:27;13.30;99.90
30648;DHT22;17683;53.360;9.736;2022-09-09T03:42:52;13.30;99.90
30648;DHT22;17683;53.360;9.736;2022-09-09T03:45:18;13.30;99.90
30648;DHT22;17683;53.360;9.736;2022-09-09T03:47:44;13.30;99.90
30648;DHT22;17683;53.360;9.736;2022-09-09T03:50:10;13.40;99.90
30648;DHT22;17683;53.360;9.736;2022-09-09T03:52:40;13.30;99.90
30648;DHT22;17683;53.360;9.736;2022-09-09T03:55:07;13.30;99.90
30648;DHT22;17683;53.360;9.736;2022-09-09T03:57:34;13.30;99.90
30648;DHT22;17683;53.360;9.736;2022-09-09T04:00:04;13.30;99.90
30648;DHT22;17683;53.360;9.736;2022-09-09T04:02:30;13.20;99.90
30648;DHT22;17683;53.360;9.736;2022-09-09T04:04:56;13.20;99.90
30648;DHT22;17683;53.360;9.736;2022-09-09T04:07:22;13.20;99.90
30648;DHT22;17683;53.360;9.736;2022-09-09T04:09:47;13.20;99.90
30648;DHT22;17683;53.360;9.736;2022-09-09T04:12:13;13.20;99.90
30648;DHT22;17683;53.360;9.736;2022-09-09T04:14:39;13.10;99.90
30648;DHT22;17683;53.360;9.736;2022-09-09T04:17:07;13.10;99.90
30648;DHT22;17683;53.360;9.736;2022-09-09T04:19:33;13.10;99.90
30648;DHT22;17683;53.360;9.736;2022-09-09T04:21:59;13.10;99.90
30648;DHT22;17683;53.360;9.736;2022-09-09T04:24:24;13.10;99.90
30648;DHT22;17683;53.360;9.736;2022-09-09T04:26:52;13.10;99.90
30648;DHT22;17683;53.360;9.736;2022-09-09T04:29:18;13.10;99.90
30648;DHT22;17683;53.360;9.736;2022-09-09T04:31:44;13.10;99.90
30648;DHT22;17683;53.360;9.736;2022-09-09T04:34:10;13.10;99.90
30648;DHT22;17683;53.360;9.736;2022-09-09T04:36:36;13.10;99.90
30648;DHT22;17683;53.360;9.736;2022-09-09T04:39:02;13.10;99.90
30648;DHT22;17683;53.360;9.736;2022-09-09T04:41:27;13.00;99.90
30648;DHT22;17683;53.360;9.736;2022-09-09T04:43:54;13.00;99.90
30648;DHT22;17683;53.360;9.736;2022-09-09T04:46:21;13.00;99.90
30648;DHT22;17683;53.360;9.736;2022-09-09T04:48:48;13.00;99.90
30648;DHT22;17683;53.360;9.736;2022-09-09T04:51:15;13.00;99.90
30648;DHT22;17683;53.360;9.736;2022-09-09T04:53:43;13.00;99.90
30648;DHT22;17683;53.360;9.736;2022-09-09T04:56:12;12.90;99.90
30648;DHT22;17683;53.360;9.736;2022-09-09T04:58:39;12.90;99.90
30648;DHT22;17683;53.360;9.736;2022-09-09T05:01:18;12.90;99.90
30648;DHT22;17683;53.360;9.736;2022-09-09T05:03:44;12.90;99.90
30648;DHT22;17683;53.360;9.736;2022-09-09T05:06:13;12.90;99.90
30648;DHT22;17683;53.360;9.736;2022-09-09T05:08:42;13.00;99.90
30648;DHT22;17683;53.360;9.736;2022-09-09T05:11:22;12.90;99.90
30648;DHT22;17683;53.360;9.736;2022-09-09T05:13:51;12.90;99.90
30648;DHT22;17683;53.360;9.736;2022-09-09T05:16:18;13.00;99.90
30648;DHT22;17683;53.360;9.736;2022-09-09T05:18:44;13.00;99.90
30648;DHT22;17683;53.360;9.736;2022-09-09T05:21:12;13.10;99.90
30648;DHT22;17683;53.360;9.736;2022-09-09T05:23:39;13.10;99.90
30648;DHT22;17683;53.360;9.736;2022-09-09T05:26:05;13.10;99.90
30648;DHT22;17683;53.360;9.736;2022-09-09T05:28:34;13.20;99.90
30648;DHT22;17683;53.360;9.736;2022-09-09T05:31:08;13.20;99.90
30648;DHT22;17683;53.360;9.736;2022-09-09T05:33:35;13.30;99.90
30648;DHT22;17683;53.360;9.736;2022-09-09T05:36:26;13.40;99.90
30648;DHT22;17683;53.360;9.736;2022-09-09T05:38:51;13.40;99.90
30648;DHT22;17683;53.360;9.736;2022-09-09T05:41:19;13.40;99.90
30648;DHT22;17683;53.360;9.736;2022-09-09T05:43:45;13.50;99.90
30648;DHT22;17683;53.360;9.736;2022-09-09T05:46:14;13.50;99.90
30648;DHT22;17683;53.360;9.736;2022-09-09T05:48:42;13.60;99.90
30648;DHT22;17683;53.360;9.736;2022-09-09T05:51:13;13.60;99.90
30648;DHT22;17683;53.360;9.736;2022-09-09T05:53:41;13.60;99.90
30648;DHT22;17683;53.360;9.736;2022-09-09T05:56:16;13.70;99.90
30648;DHT22;17683;53.360;9.736;2022-09-09T05:58:46;13.70;99.90
30648;DHT22;17683;53.360;9.736;2022-09-09T06:01:25;13.70;99.90
30648;DHT22;17683;53.360;9.736;2022-09-09T06:03:52;13.80;99.90
30648;DHT22;17683;53.360;9.736;2022-09-09T06:06:23;13.90;99.90
30648;DHT22;17683;53.360;9.736;2022-09-09T06:08:52;13.90;99.90
30648;DHT22;17683;53.360;9.736;2022-09-09T06:11:23;13.90;99.90
30648;DHT22;17683;53.360;9.736;2022-09-09T06:13:50;14.00;99.90
30648;DHT22;17683;53.360;9.736;2022-09-09T06:16:22;14.00;99.90
30648;DHT22;17683;53.360;9.736;2022-09-09T06:18:52;14.10;99.90
30648;DHT22;17683;53.360;9.736;2022-09-09T06:21:20;14.10;99.90
30648;DHT22;17683;53.360;9.736;2022-09-09T06:23:46;14.20;99.90
30648;DHT22;17683;53.360;9.736;2022-09-09T06:26:14;14.20;99.90
30648;DHT22;17683;53.360;9.736;2022-09-09T06:28:40;14.30;99.90
30648;DHT22;17683;53.360;9.736;2022-09-09T06:31:10;14.40;99.90
30648;DHT22;17683;53.360;9.736;2022-09-09T06:33:38;14.40;99.90
30648;DHT22;17683;53.360;9.736;2022-09-09T06:36:10;14.50;99.90
30648;DHT22;17683;53.360;9.736;2022-09-09T06:38:37;14.60;99.90
30648;DHT22;17683;53.360;9.736;2022-09-09T06:41:02;14.60;99.90
30648;DHT22;17683;53.360;9.736;2022-09-09T06:43:29;14.60;99.90
30648;DHT22;17683;53.360;9.736;2022-09-09T06:46:02;14.60;99.90
30648;DHT22;17683;53.360;9.736;2022-09-09T06:48:28;14.70;99.90
30648;DHT22;17683;53.360;9.736;2022-09-09T06:51:08;14.70;99.90
30648;DHT22;17683;53.360;9.736;2022-09-09T06:53:35;14.80;99.90
30648;DHT22;17683;53.360;9.736;2022-09-09T06:58:37;14.90;99.90
30648;DHT22;17683;53.360;9.736;2022-09-09T07:01:09;15.00;99.90
30648;DHT22;17683;53.360;9.736;2022-09-09T07:03:35;15.10;99.90
30648;DHT22;17683;53.360;9.736;2022-09-09T07:06:01;15.10;99.90
30648;DHT22;17683;53.360;9.736;2022-09-09T07:08:27;15.10;99.90
30648;DHT22;17683;53.360;9.736;2022-09-09T07:10:53;15.20;99.90
30648;DHT22;17683;53.360;9.736;2022-09-09T07:13:26;15.20;99.90
30648;DHT22;17683;53.360;9.736;2022-09-09T07:15:52;15.30;99.90
30648;DHT22;17683;53.360;9.736;2022-09-09T07:18:19;15.30;99.90
30648;DHT22;17683;53.360;9.736;2022-09-09T07:20:55;15.30;99.90
30648;DHT22;17683;53.360;9.736;2022-09-09T07:23:23;15.40;99.90
30648;DHT22;17683;53.360;9.736;2022-09-09T07:25:49;15.40;99.90
30648;DHT22;17683;53.360;9.736;2022-09-09T07:28:16;15.50;99.90
30648;DHT22;17683;53.360;9.736;2022-09-09T07:30:42;15.60;99.90
30648;DHT22;17683;53.360;9.736;2022-09-09T07:33:08;15.70;99.90
30648;DHT22;17683;53.360;9.736;2022-09-09T07:35:35;15.80;99.90
30648;DHT22;17683;53.360;9.736;2022-09-09T07:38:02;15.90;99.90
30648;DHT22;17683;53.360;9.736;2022-09-09T07:40:33;16.10;99.90
30648;DHT22;17683;53.360;9.736;2022-09-09T07:42:59;16.20;99.90
30648;DHT22;17683;53.360;9.736;2022-09-09T07:45:25;16.40;99.90
30648;DHT22;17683;53.360;9.736;2022-09-09T07:47:53;16.50;99.90
30648;DHT22;17683;53.360;9.736;2022-09-09T07:50:19;16.60;99.90
30648;DHT22;17683;53.360;9.736;2022-09-09T07:52:44;16.70;99.90
30648;DHT22;17683;53.360;9.736;2022-09-09T07:55:10;16.80;99.90
30648;DHT22;17683;53.360;9.736;2022-09-09T07:57:36;16.80;99.90
30648;DHT22;17683;53.360;9.736;2022-09-09T08:00:03;16.80;99.90
30648;DHT22;17683;53.360;9.736;2022-09-09T08:02:29;16.80;99.90
30648;DHT22;17683;53.360;9.736;2022-09-09T08:04:55;16.80;99.90
30648;DHT22;17683;53.360;9.736;2022-09-09T08:07:22;16.80;99.90
30648;DHT22;17683;53.360;9.736;2022-09-09T08:09:48;16.80;99.90
30648;DHT22;17683;53.360;9.736;2022-09-09T08:12:15;16.80;99.90
30648;DHT22;17683;53.360;9.736;2022-09-09T08:14:40;16.90;99.90
30648;DHT22;17683;53.360;9.736;2022-09-09T08:17:06;16.90;99.90
30648;DHT22;17683;53.360;9.736;2022-09-09T08:19:32;17.00;99.90
30648;DHT22;17683;53.360;9.736;2022-09-09T08:22:01;17.10;99.90
30648;DHT22;17683;53.360;9.736;2022-09-09T08:24:28;17.10;99.90
30648;DHT22;17683;53.360;9.736;2022-09-09T08:26:54;17.20;99.90
30648;DHT22;17683;53.360;9.736;2022-09-09T08:29:22;17.30;99.90
30648;DHT22;17683;53.360;9.736;2022-09-09T08:31:56;17.40;99.90
30648;DHT22;17683;53.360;9.736;2022-09-09T08:34:23;17.50;99.90
30648;DHT22;17683;53.360;9.736;2022-09-09T08:36:50;17.60;99.90
30648;DHT22;17683;53.360;9.736;2022-09-09T08:39:18;17.70;99.90
30648;DHT22;17683;53.360;9.736;2022-09-09T08:44:41;17.90;99.90
30648;DHT22;17683;53.360;9.736;2022-09-09T08:52:29;18.20;99.90
30648;DHT22;17683;53.360;9.736;2022-09-09T08:55:08;18.30;99.90
30648;DHT22;17683;53.360;9.736;2022-09-09T08:57:36;18.30;99.90
30648;DHT22;17683;53.360;9.736;2022-09-09T09:00:02;18.40;99.90
30648;DHT22;17683;53.360;9.736;2022-09-09T09:02:39;18.40;99.90
30648;DHT22;17683;53.360;9.736;2022-09-09T09:08:22;18.60;99.90
30648;DHT22;17683;53.360;9.736;2022-09-09T09:10:51;18.60;99.90
30648;DHT22;17683;53.360;9.736;2022-09-09T09:18:47;18.70;99.90
30648;DHT22;17683;53.360;9.736;2022-09-09T09:21:21;18.80;99.90
30648;DHT22;17683;53.360;9.736;2022-09-09T09:23:58;18.90;99.90
30648;DHT22;17683;53.360;9.736;2022-09-09T09:26:30;19.00;99.90
30648;DHT22;17683;53.360;9.736;2022-09-09T09:28:59;19.10;99.90
30648;DHT22;17683;53.360;9.736;2022-09-09T09:31:26;19.10;99.90
30648;DHT22;17683;53.360;9.736;2022-09-09T09:33:56;19.30;99.90
30648;DHT22;17683;53.360;9.736;2022-09-09T09:36:37;19.40;99.90
30648;DHT22;17683;53.360;9.736;2022-09-09T09:39:04;19.50;99.90
30648;DHT22;17683;53.360;9.736;2022-09-09T09:41:38;19.60;99.90
30648;DHT22;17683;53.360;9.736;2022-09-09T09:44:06;19.60;99.90
30648;DHT22;17683;53.360;9.736;2022-09-09T09:46:45;19.60;99.90
30648;DHT22;17683;53.360;9.736;2022-09-09T09:49:11;19.60;99.90
30648;DHT22;17683;53.360;9.736;2022-09-09T09:51:39;19.70;99.90
30648;DHT22;17683;53.360;9.736;2022-09-09T09:54:30;19.80;99.90
30648;DHT22;17683;53.360;9.736;2022-09-09T09:57:10;19.90;99.90
30648;DHT22;17683;53.360;9.736;2022-09-09T09:59:37;20.00;99.90
30648;DHT22;17683;53.360;9.736;2022-09-09T10:04:46;20.30;99.90
30648;DHT22;17683;53.360;9.736;2022-09-09T10:07:21;20.50;99.90
30648;DHT22;17683;53.360;9.736;2022-09-09T10:09:52;20.60;99.90
30648;DHT22;17683;53.360;9.736;2022-09-09T10:12:24;20.60;99.90
30648;DHT22;17683;53.360;9.736;2022-09-09T10:18:20;20.70;99.90
30648;DHT22;17683;53.360;9.736;2022-09-09T10:23:47;20.90;99.90
30648;DHT22;17683;53.360;9.736;2022-09-09T10:35:31;20.80;99.90
30648;DHT22;17683;53.360;9.736;2022-09-09T10:38:03;20.90;99.90
30648;DHT22;17683;53.360;9.736;2022-09-09T10:53:35;20.80;99.90
30648;DHT22;17683;53.360;9.736;2022-09-09T10:56:28;20.80;99.90
30648;DHT22;17683;53.360;9.736;2022-09-09T11:02:28;21.00;99.90
30648;DHT22;17683;53.360;9.736;2022-09-09T11:05:24;21.00;99.90
30648;DHT22;17683;53.360;9.736;2022-09-09T11:08:29;21.10;99.90
30648;DHT22;17683;53.360;9.736;2022-09-09T11:14:43;21.10;99.90
30648;DHT22;17683;53.360;9.736;2022-09-09T11:20:37;21.50;99.90
30648;DHT22;17683;53.360;9.736;2022-09-09T11:52:48;22.20;99.90
30648;DHT22;17683;53.360;9.736;2022-09-09T11:55:32;22.20;99.90
30648;DHT22;17683;53.360;9.736;2022-09-09T12:02:19;22.20;99.90
30648;DHT22;17683;53.360;9.736;2022-09-09T12:05:10;22.00;99.90
30648;DHT22;17683;53.360;9.736;2022-09-09T12:08:27;21.90;99.90
30648;DHT22;17683;53.360;9.736;2022-09-09T12:10:58;21.70;99.90
30648;DHT22;17683;53.360;9.736;2022-09-09T12:13:37;21.50;99.90
30648;DHT22;17683;53.360;9.736;2022-09-09T12:16:27;21.50;99.90
30648;DHT22;17683;53.360;9.736;2022-09-09T12:19:05;21.40;99.90
30648;DHT22;17683;53.360;9.736;2022-09-09T12:38:13;20.70;99.90
30648;DHT22;17683;53.360;9.736;2022-09-09T12:41:27;20.70;99.90
30648;DHT22;17683;53.360;9.736;2022-09-09T12:44:09;20.50;99.90
30648;DHT22;17683;53.360;9.736;2022-09-09T12:46:45;20.50;99.90
30648;DHT22;17683;53.360;9.736;2022-09-09T12:49:39;20.30;99.90
30648;DHT22;17683;53.360;9.736;2022-09-09T12:52:47;20.30;99.90
30648;DHT22;17683;53.360;9.736;2022-09-09T12:55:48;20.20;99.90
30648;DHT22;17683;53.360;9.736;2022-09-09T12:58:44;20.10;99.90
30648;DHT22;17683;53.360;9.736;2022-09-09T13:01:32;20.00;99.90
30648;DHT22;17683;53.360;9.736;2022-09-09T13:04:27;20.00;99.90
30648;DHT22;17683;53.360;9.736;2022-09-09T13:07:16;19.90;99.90
30648;DHT22;17683;53.360;9.736;2022-09-09T13:10:07;19.80;99.90
30648;DHT22;17683;53.360;9.736;2022-09-09T13:19:16;19.60;99.90
30648;DHT22;17683;53.360;9.736;2022-09-09T13:22:34;19.50;99.90
30648;DHT22;17683;53.360;9.736;2022-09-09T13:32:25;19.30;99.90
30648;DHT22;17683;53.360;9.736;2022-09-09T13:34:59;19.30;99.90
30648;DHT22;17683;53.360;9.736;2022-09-09T13:37:33;19.20;99.90
30648;DHT22;17683;53.360;9.736;2022-09-09T13:40:23;19.20;99.90
30648;DHT22;17683;53.360;9.736;2022-09-09T13:43:04;19.00;99.90
30648;DHT22;17683;53.360;9.736;2022-09-09T13:45:51;18.80;99.90
30648;DHT22;17683;53.360;9.736;2022-09-09T13:48:21;18.70;99.90
30648;DHT22;17683;53.360;9.736;2022-09-09T13:51:21;18.50;99.90
30648;DHT22;17683;53.360;9.736;2022-09-09T13:54:18;18.40;99.90
30648;DHT22;17683;53.360;9.736;2022-09-09T13:56:51;18.20;99.90
30648;DHT22;17683;53.360;9.736;2022-09-09T14:02:32;17.80;99.90
30648;DHT22;17683;53.360;9.736;2022-09-09T14:05:45;17.60;99.90
30648;DHT22;17683;53.360;9.736;2022-09-09T14:08:25;17.60;99.90
30648;DHT22;17683;53.360;9.736;2022-09-09T14:11:31;17.50;99.90
30648;DHT22;17683;53.360;9.736;2022-09-09T14:14:10;17.50;99.90
30648;DHT22;17683;53.360;9.736;2022-09-09T14:17:22;17.40;99.90
30648;DHT22;17683;53.360;9.736;2022-09-09T14:19:57;17.30;99.90
30648;DHT22;17683;53.360;9.736;2022-09-09T14:22:30;17.20;99.90
30648;DHT22;17683;53.360;9.736;2022-09-09T14:25:29;17.20;99.90
30648;DHT22;17683;53.360;9.736;2022-09-09T14:28:12;17.10;99.90
30648;DHT22;17683;53.360;9.736;2022-09-09T14:33:59;17.10;99.90
30648;DHT22;17683;53.360;9.736;2022-09-09T14:36:41;17.10;99.90
30648;DHT22;17683;53.360;9.736;2022-09-09T14:39:16;17.10;99.90
30648;DHT22;17683;53.360;9.736;2022-09-09T14:41:55;17.10;99.90
30648;DHT22;17683;53.360;9.736;2022-09-09T14:44:36;17.10;99.90
30648;DHT22;17683;53.360;9.736;2022-09-09T14:47:33;17.10;99.90
30648;DHT22;17683;53.360;9.736;2022-09-09T14:50:27;17.10;99.90
30648;DHT22;17683;53.360;9.736;2022-09-09T14:53:19;17.20;99.90
30648;DHT22;17683;53.360;9.736;2022-09-09T14:55:52;17.30;99.90
30648;DHT22;17683;53.360;9.736;2022-09-09T14:58:46;17.30;99.90
30648;DHT22;17683;53.360;9.736;2022-09-09T15:01:14;17.50;99.90
30648;DHT22;17683;53.360;9.736;2022-09-09T15:04:02;17.50;99.90
30648;DHT22;17683;53.360;9.736;2022-09-09T15:07:10;17.50;99.90
30648;DHT22;17683;53.360;9.736;2022-09-09T15:09:51;17.40;99.90
30648;DHT22;17683;53.360;9.736;2022-09-09T15:12:36;17.40;99.90
30648;DHT22;17683;53.360;9.736;2022-09-09T15:15:07;17.50;99.90
30648;DHT22;17683;53.360;9.736;2022-09-09T15:17:57;17.50;99.90
30648;DHT22;17683;53.360;9.736;2022-09-09T15:23:45;17.60;99.90
30648;DHT22;17683;53.360;9.736;2022-09-09T15:26:16;17.60;99.90
30648;DHT22;17683;53.360;9.736;2022-09-09T15:32:09;17.60;99.90
30648;DHT22;17683;53.360;9.736;2022-09-09T15:35:04;17.70;99.90
30648;DHT22;17683;53.360;9.736;2022-09-09T15:37:39;17.70;99.90
30648;DHT22;17683;53.360;9.736;2022-09-09T15:40:46;17.80;99.90
30648;DHT22;17683;53.360;9.736;2022-09-09T15:43:26;17.80;99.90
30648;DHT22;17683;53.360;9.736;2022-09-09T15:49:26;17.80;99.90
30648;DHT22;17683;53.360;9.736;2022-09-09T15:52:09;17.60;99.90
30648;DHT22;17683;53.360;9.736;2022-09-09T15:54:38;17.70;99.90
30648;DHT22;17683;53.360;9.736;2022-09-09T15:57:18;17.60;99.90
30648;DHT22;17683;53.360;9.736;2022-09-09T15:59:49;17.60;99.90
30648;DHT22;17683;53.360;9.736;2022-09-09T16:02:32;17.60;99.90
30648;DHT22;17683;53.360;9.736;2022-09-09T16:05:10;17.60;99.90
30648;DHT22;17683;53.360;9.736;2022-09-09T16:07:48;17.60;99.90
30648;DHT22;17683;53.360;9.736;2022-09-09T16:10:14;17.50;99.90
30648;DHT22;17683;53.360;9.736;2022-09-09T16:12:49;17.50;99.90
30648;DHT22;17683;53.360;9.736;2022-09-09T16:15:56;17.50;99.90
30648;DHT22;17683;53.360;9.736;2022-09-09T16:18:46;17.40;99.90
30648;DHT22;17683;53.360;9.736;2022-09-09T16:24:07;17.40;99.90
30648;DHT22;17683;53.360;9.736;2022-09-09T16:26:59;17.40;99.90
30648;DHT22;17683;53.360;9.736;2022-09-09T16:29:44;17.30;99.90
30648;DHT22;17683;53.360;9.736;2022-09-09T16:32:23;17.30;99.90
30648;DHT22;17683;53.360;9.736;2022-09-09T16:35:01;17.20;99.90
30648;DHT22;17683;53.360;9.736;2022-09-09T16:37:47;17.10;99.90
30648;DHT22;17683;53.360;9.736;2022-09-09T16:40:13;17.10;99.90
30648;DHT22;17683;53.360;9.736;2022-09-09T16:42:48;17.10;99.90
30648;DHT22;17683;53.360;9.736;2022-09-09T16:45:49;17.10;99.90
30648;DHT22;17683;53.360;9.736;2022-09-09T16:48:23;17.00;99.90
30648;DHT22;17683;53.360;9.736;2022-09-09T16:51:04;16.90;99.90
30648;DHT22;17683;53.360;9.736;2022-09-09T16:53:53;16.90;99.90
30648;DHT22;17683;53.360;9.736;2022-09-09T16:56:28;16.80;99.90
30648;DHT22;17683;53.360;9.736;2022-09-09T16:58:57;16.80;99.90
30648;DHT22;17683;53.360;9.736;2022-09-09T17:01:48;16.80;99.90
30648;DHT22;17683;53.360;9.736;2022-09-09T17:04:21;16.70;99.90
30648;DHT22;17683;53.360;9.736;2022-09-09T17:06:55;16.70;99.90
30648;DHT22;17683;53.360;9.736;2022-09-09T17:09:31;16.70;99.90
30648;DHT22;17683;53.360;9.736;2022-09-09T17:12:23;16.60;99.90
30648;DHT22;17683;53.360;9.736;2022-09-09T17:14:50;16.60;99.90
30648;DHT22;17683;53.360;9.736;2022-09-09T17:17:39;16.70;99.90
30648;DHT22;17683;53.360;9.736;2022-09-09T17:20:22;16.60;99.90
30648;DHT22;17683;53.360;9.736;2022-09-09T17:22:47;16.60;99.90
30648;DHT22;17683;53.360;9.736;2022-09-09T17:25:24;16.60;99.90
30648;DHT22;17683;53.360;9.736;2022-09-09T17:28:28;16.60;99.90
30648;DHT22;17683;53.360;9.736;2022-09-09T17:31:13;16.50;99.90
30648;DHT22;17683;53.360;9.736;2022-09-09T17:34:05;16.50;99.90
30648;DHT22;17683;53.360;9.736;2022-09-09T17:37:13;16.30;99.90
30648;DHT22;17683;53.360;9.736;2022-09-09T17:42:43;16.10;99.90
30648;DHT22;17683;53.360;9.736;2022-09-09T17:45:11;16.10;99.90
30648;DHT22;17683;53.360;9.736;2022-09-09T17:47:49;16.10;99.90
30648;DHT22;17683;53.360;9.736;2022-09-09T17:50:19;16.20;99.90
30648;DHT22;17683;53.360;9.736;2022-09-09T17:52:53;16.10;99.90
30648;DHT22;17683;53.360;9.736;2022-09-09T17:55:25;16.10;99.90
30648;DHT22;17683;53.360;9.736;2022-09-09T17:58:12;16.10;99.90
30648;DHT22;17683;53.360;9.736;2022-09-09T18:00:47;16.00;99.90
30648;DHT22;17683;53.360;9.736;2022-09-09T18:03:50;16.00;99.90
30648;DHT22;17683;53.360;9.736;2022-09-09T18:06:38;15.80;99.90
30648;DHT22;17683;53.360;9.736;2022-09-09T18:09:29;15.80;99.90
30648;DHT22;17683;53.360;9.736;2022-09-09T18:12:15;15.80;99.90
30648;DHT22;17683;53.360;9.736;2022-09-09T18:14:44;15.80;99.90
30648;DHT22;17683;53.360;9.736;2022-09-09T18:18:02;15.80;99.90
30648;DHT22;17683;53.360;9.736;2022-09-09T18:21:00;15.70;99.90
30648;DHT22;17683;53.360;9.736;2022-09-09T18:23:35;15.70;99.90
30648;DHT22;17683;53.360;9.736;2022-09-09T18:26:10;15.70;99.90
30648;DHT22;17683;53.360;9.736;2022-09-09T18:28:50;15.60;99.90
30648;DHT22;17683;53.360;9.736;2022-09-09T18:31:28;15.60;99.90
30648;DHT22;17683;53.360;9.736;2022-09-09T18:34:24;15.60;99.90
30648;DHT22;17683;53.360;9.736;2022-09-09T18:36:57;15.60;99.90
30648;DHT22;17683;53.360;9.736;2022-09-09T18:39:44;15.50;99.90
30648;DHT22;17683;53.360;9.736;2022-09-09T18:42:16;15.50;99.90
30648;DHT22;17683;53.360;9.736;2022-09-09T18:45:00;15.40;99.90
30648;DHT22;17683;53.360;9.736;2022-09-09T18:47:35;15.40;99.90
30648;DHT22;17683;53.360;9.736;2022-09-09T18:50:44;15.40;99.90
30648;DHT22;17683;53.360;9.736;2022-09-09T18:53:20;15.30;99.90
30648;DHT22;17683;53.360;9.736;2022-09-09T18:56:07;15.30;99.90
30648;DHT22;17683;53.360;9.736;2022-09-09T18:58:34;15.30;99.90
30648;DHT22;17683;53.360;9.736;2022-09-09T19:01:12;15.30;99.90
30648;DHT22;17683;53.360;9.736;2022-09-09T19:03:41;15.30;99.90
30648;DHT22;17683;53.360;9.736;2022-09-09T19:06:26;15.30;99.90
30648;DHT22;17683;53.360;9.736;2022-09-09T19:08:56;15.20;99.90
30648;DHT22;17683;53.360;9.736;2022-09-09T19:11:28;15.20;99.90
30648;DHT22;17683;53.360;9.736;2022-09-09T19:14:11;15.20;99.90
30648;DHT22;17683;53.360;9.736;2022-09-09T19:20:12;15.20;99.90
30648;DHT22;17683;53.360;9.736;2022-09-09T19:22:50;15.10;99.90
30648;DHT22;17683;53.360;9.736;2022-09-09T19:25:22;15.10;99.90
30648;DHT22;17683;53.360;9.736;2022-09-09T19:27:51;15.00;99.90
30648;DHT22;17683;53.360;9.736;2022-09-09T19:30:33;15.00;99.90
30648;DHT22;17683;53.360;9.736;2022-09-09T19:33:09;15.00;99.90
30648;DHT22;17683;53.360;9.736;2022-09-09T19:36:09;14.90;99.90
30648;DHT22;17683;53.360;9.736;2022-09-09T19:38:43;14.90;99.90